Time;durP1;ratioP1;P1;durP2;ratioP2;P2;SDS_P1;SDS_P2;PMS_P1;PMS_P2;Temp;Humidity;BMP_temperature;BMP_pressure;BME280_temperature;BME280_humidity;BME280_pressure;Samples;Min_cycle;Max_cycle;Signal;HPM_P1;HPM_P2
2022/08/24 00:00:21;;;;;;;0.00;0.00;;;;;;;;;;5047811;28;20282;-59
2022/08/24 00:02:47;;;;;;;0.00;0.00;;;;;;;;;;5049287;28;20074;-59
2022/08/24 00:05:13;;;;;;;0.00;0.00;;;;;;;;;;5048469;28;20036;-58
2022/08/24 00:07:38;;;;;;;0.00;0.00;;;;;;;;;;5049371;28;20060;-59
2022/08/24 00:10:05;;;;;;;0.00;0.00;;;;;;;;;;5048652;28;20079;-60
2022/08/24 00:12:31;;;;;;;0.00;0.00;;;;;;;;;;5049373;28;20469;-59
2022/08/24 00:14:56;;;;;;;0.00;0.00;;;;;;;;;;5048772;28;20037;-59
2022/08/24 00:17:21;;;;;;;0.00;0.00;;;;;;;;;;5048381;28;20028;-59
2022/08/24 00:19:47;;;;;;;0.00;0.00;;;;;;;;;;5048731;28;20016;-59
2022/08/24 00:22:12;;;;;;;0.00;0.00;;;;;;;;;;5048387;28;20025;-59
2022/08/24 00:24:37;;;;;;;0.00;0.00;;;;;;;;;;5048729;28;20025;-59
2022/08/24 00:27:03;;;;;;;0.00;0.00;;;;;;;;;;5048812;28;20029;-60
2022/08/24 00:29:28;;;;;;;0.00;0.00;;;;;;;;;;5046544;28;20279;-59
2022/08/24 00:31:54;;;;;;;0.00;0.00;;;;;;;;;;5048505;28;20028;-59
2022/08/24 00:34:19;;;;;;;0.00;0.00;;;;;;;;;;5048657;28;20025;-59
2022/08/24 00:36:44;;;;;;;0.00;0.00;;;;;;;;;;5048923;28;20400;-59
2022/08/24 00:39:10;;;;;;;0.00;0.00;;;;;;;;;;5048282;28;21534;-59
2022/08/24 00:41:38;;;;;;;0.00;0.00;;;;;;;;;;5048475;28;20025;-59
2022/08/24 00:44:04;;;;;;;0.00;0.00;;;;;;;;;;5048739;28;20029;-59
2022/08/24 00:46:35;;;;;;;0.00;0.00;;;;;;;;;;5048102;28;20385;-59
2022/08/24 00:49:03;;;;;;;0.00;0.00;;;;;;;;;;5048420;28;20024;-59
2022/08/24 00:51:32;;;;;;;0.00;0.00;;;;;;;;;;5048171;28;20608;-59
2022/08/24 00:54:00;;;;;;;0.00;0.00;;;;;;;;;;5048524;28;20100;-59
2022/08/24 00:56:26;;;;;;;0.00;0.00;;;;;;;;;;5048134;28;20055;-59
2022/08/24 00:58:54;;;;;;;0.00;0.00;;;;;;;;;;5049614;28;20029;-60
2022/08/24 01:01:20;;;;;;;0.00;0.00;;;;;;;;;;5053517;28;20020;-60
2022/08/24 01:03:45;;;;;;;0.00;0.00;;;;;;;;;;5052523;28;20035;-58
2022/08/24 01:06:11;;;;;;;0.07;0.07;;;;;;;;;;5051945;28;20082;-59
2022/08/24 01:08:37;;;;;;;0.00;0.00;;;;;;;;;;5052512;28;20313;-60
2022/08/24 01:11:05;;;;;;;0.00;0.00;;;;;;;;;;5052312;28;20432;-58
2022/08/24 01:13:31;;;;;;;0.00;0.00;;;;;;;;;;5052072;28;20021;-60
2022/08/24 01:15:57;;;;;;;0.00;0.00;;;;;;;;;;5052148;28;20083;-59
2022/08/24 01:21:21;;;;;;;0.00;0.00;;;;;;;;;;5051834;28;20090;-59
2022/08/24 01:23:56;;;;;;;0.00;0.00;;;;;;;;;;5052007;28;20028;-59
2022/08/24 01:26:24;;;;;;;0.00;0.00;;;;;;;;;;5050536;28;20024;-60
2022/08/24 01:28:54;;;;;;;0.00;0.00;;;;;;;;;;5051991;28;20110;-58
2022/08/24 01:31:21;;;;;;;0.00;0.00;;;;;;;;;;5051803;28;20480;-60
2022/08/24 01:33:47;;;;;;;0.00;0.00;;;;;;;;;;5051801;28;20017;-60
2022/08/24 01:36:16;;;;;;;0.00;0.00;;;;;;;;;;5051618;28;20017;-59
2022/08/24 01:38:41;;;;;;;0.00;0.00;;;;;;;;;;5051710;28;20025;-59
2022/08/24 01:41:06;;;;;;;0.00;0.00;;;;;;;;;;5051828;28;20025;-59
2022/08/24 01:43:32;;;;;;;0.00;0.00;;;;;;;;;;5052753;28;20031;-59
2022/08/24 01:45:57;;;;;;;0.00;0.00;;;;;;;;;;5051587;28;20256;-60
2022/08/24 01:48:22;;;;;;;0.00;0.00;;;;;;;;;;5051260;28;20027;-60
2022/08/24 01:50:47;;;;;;;0.00;0.00;;;;;;;;;;5051699;28;20112;-60
2022/08/24 01:53:12;;;;;;;0.00;0.00;;;;;;;;;;5051098;28;20282;-59
2022/08/24 01:55:39;;;;;;;0.00;0.00;;;;;;;;;;5050349;28;20404;-58
2022/08/24 01:58:04;;;;;;;0.00;0.00;;;;;;;;;;5051433;28;20036;-60
2022/08/24 02:00:29;;;;;;;0.00;0.00;;;;;;;;;;5051084;28;20032;-58
2022/08/24 02:02:55;;;;;;;0.00;0.00;;;;;;;;;;5051217;28;20017;-59
2022/08/24 02:05:22;;;;;;;0.00;0.00;;;;;;;;;;5051109;28;20036;-58
2022/08/24 02:07:48;;;;;;;0.00;0.00;;;;;;;;;;5050980;28;20421;-60
2022/08/24 02:10:13;;;;;;;0.00;0.00;;;;;;;;;;5050954;28;20091;-58
2022/08/24 02:12:39;;;;;;;0.00;0.00;;;;;;;;;;5051336;28;20083;-58
2022/08/24 02:15:07;;;;;;;0.00;0.00;;;;;;;;;;5051063;28;20063;-59
2022/08/24 02:17:33;;;;;;;0.00;0.00;;;;;;;;;;5052215;28;20469;-60
2022/08/24 02:19:59;;;;;;;0.00;0.00;;;;;;;;;;5051266;28;20112;-61
2022/08/24 02:22:24;;;;;;;0.00;0.00;;;;;;;;;;5050422;28;20099;-58
2022/08/24 02:24:49;;;;;;;0.00;0.00;;;;;;;;;;5050175;28;20025;-59
2022/08/24 02:27:15;;;;;;;0.00;0.00;;;;;;;;;;5050297;28;20474;-58
2022/08/24 02:29:41;;;;;;;0.00;0.00;;;;;;;;;;5050917;28;20967;-58
2022/08/24 02:32:06;;;;;;;0.00;0.00;;;;;;;;;;5050579;28;20032;-59
2022/08/24 02:34:31;;;;;;;0.00;0.00;;;;;;;;;;5050339;28;20092;-58
2022/08/24 02:36:56;;;;;;;0.00;0.00;;;;;;;;;;5050719;28;20103;-59
2022/08/24 02:39:21;;;;;;;0.00;0.00;;;;;;;;;;5050652;28;20070;-59
2022/08/24 02:41:47;;;;;;;0.00;0.00;;;;;;;;;;5050880;28;20578;-58
2022/08/24 02:44:12;;;;;;;0.00;0.00;;;;;;;;;;5050410;28;20460;-59
2022/08/24 02:46:37;;;;;;;0.00;0.00;;;;;;;;;;5050484;28;20082;-59
2022/08/24 02:49:03;;;;;;;1.45;1.38;;;;;;;;;;5050836;28;20263;-59
2022/08/24 02:51:29;;;;;;;0.00;0.00;;;;;;;;;;5050239;28;20037;-58
2022/08/24 02:53:55;;;;;;;0.00;0.00;;;;;;;;;;5049682;28;20351;-58
2022/08/24 02:56:21;;;;;;;0.00;0.00;;;;;;;;;;5049806;28;20467;-59
2022/08/24 02:58:47;;;;;;;0.00;0.00;;;;;;;;;;5050180;28;20025;-59
2022/08/24 03:01:13;;;;;;;0.00;0.00;;;;;;;;;;5049696;28;20067;-58
2022/08/24 03:03:38;;;;;;;0.00;0.00;;;;;;;;;;5050255;28;20024;-60
2022/08/24 03:06:04;;;;;;;0.00;0.00;;;;;;;;;;5050240;28;20450;-59
2022/08/24 03:08:29;;;;;;;0.00;0.00;;;;;;;;;;5049688;28;20082;-59
2022/08/24 03:10:54;;;;;;;0.00;0.00;;;;;;;;;;5049860;28;20059;-59
2022/08/24 03:13:20;;;;;;;0.00;0.00;;;;;;;;;;5049975;28;20082;-59
2022/08/24 03:15:45;;;;;;;0.00;0.00;;;;;;;;;;5050193;28;20023;-60
2022/08/24 03:18:10;;;;;;;0.00;0.00;;;;;;;;;;5050048;28;20017;-59
2022/08/24 03:20:36;;;;;;;0.00;0.00;;;;;;;;;;5048994;28;20025;-59
2022/08/24 03:23:02;;;;;;;0.00;0.00;;;;;;;;;;5049258;28;20404;-58
2022/08/24 03:25:28;;;;;;;0.00;0.00;;;;;;;;;;5049510;28;20462;-59
2022/08/24 03:27:53;;;;;;;0.00;0.00;;;;;;;;;;5050026;28;20389;-59
2022/08/24 03:30:19;;;;;;;0.00;0.00;;;;;;;;;;5049250;28;20025;-60
2022/08/24 03:32:44;;;;;;;0.00;0.00;;;;;;;;;;5049876;28;20027;-59
2022/08/24 03:35:10;;;;;;;0.00;0.00;;;;;;;;;;5049841;28;20063;-58
2022/08/24 03:37:36;;;;;;;0.00;0.00;;;;;;;;;;5049108;28;20021;-58
2022/08/24 03:40:01;;;;;;;6.20;4.95;;;;;;;;;;5049739;28;20382;-58
2022/08/24 03:42:27;;;;;;;0.00;0.00;;;;;;;;;;5049244;28;20021;-59
2022/08/24 03:44:52;;;;;;;0.00;0.00;;;;;;;;;;5049313;28;20029;-59
2022/08/24 03:47:19;;;;;;;0.00;0.00;;;;;;;;;;5048999;28;20483;-59
2022/08/24 03:49:44;;;;;;;0.00;0.00;;;;;;;;;;5049327;28;20100;-59
2022/08/24 03:52:10;;;;;;;0.00;0.00;;;;;;;;;;5048321;28;20151;-59
2022/08/24 03:54:35;;;;;;;0.00;0.00;;;;;;;;;;5048872;28;20036;-59
2022/08/24 03:57:00;;;;;;;0.00;0.00;;;;;;;;;;5049197;28;20045;-59
2022/08/24 03:59:26;;;;;;;0.00;0.00;;;;;;;;;;5049197;28;20013;-59
2022/08/24 04:01:51;;;;;;;0.00;0.00;;;;;;;;;;5049119;28;20390;-59
2022/08/24 04:04:17;;;;;;;0.00;0.00;;;;;;;;;;5048955;28;20146;-58
2022/08/24 04:06:45;;;;;;;0.00;0.00;;;;;;;;;;5049392;28;20025;-59
2022/08/24 04:09:11;;;;;;;0.00;0.00;;;;;;;;;;5049067;28;20143;-59
2022/08/24 04:11:36;;;;;;;0.00;0.00;;;;;;;;;;5051494;28;20112;-59
2022/08/24 04:14:01;;;;;;;0.00;0.00;;;;;;;;;;5048842;28;20024;-59
2022/08/24 04:16:28;;;;;;;0.00;0.00;;;;;;;;;;5048923;28;20013;-59
2022/08/24 04:18:55;;;;;;;0.00;0.00;;;;;;;;;;5049248;28;20028;-60
2022/08/24 04:21:27;;;;;;;0.00;0.00;;;;;;;;;;5047710;28;20335;-58
2022/08/24 04:23:53;;;;;;;0.00;0.00;;;;;;;;;;5048607;28;20086;-59
2022/08/24 04:26:19;;;;;;;0.00;0.00;;;;;;;;;;5048551;28;20032;-60
2022/08/24 04:28:44;;;;;;;0.00;0.00;;;;;;;;;;5049245;28;20434;-59
2022/08/24 04:31:10;;;;;;;0.00;0.00;;;;;;;;;;5048968;28;20079;-59
2022/08/24 04:33:35;;;;;;;0.00;0.00;;;;;;;;;;5048380;28;20067;-59
2022/08/24 04:36:01;;;;;;;0.00;0.00;;;;;;;;;;5048560;28;20055;-60
2022/08/24 04:38:28;;;;;;;0.00;0.00;;;;;;;;;;5048433;28;20025;-59
2022/08/24 04:40:53;;;;;;;0.00;0.00;;;;;;;;;;5048564;28;20086;-60
2022/08/24 04:43:18;;;;;;;0.00;0.00;;;;;;;;;;5048127;28;20021;-59
2022/08/24 04:45:45;;;;;;;0.00;0.00;;;;;;;;;;5048456;28;20029;-59
2022/08/24 04:48:11;;;;;;;0.00;0.00;;;;;;;;;;5047941;28;20090;-59
2022/08/24 04:50:38;;;;;;;0.00;0.00;;;;;;;;;;5047938;28;20474;-59
2022/08/24 04:53:03;;;;;;;0.00;0.00;;;;;;;;;;5048595;28;20017;-60
2022/08/24 04:55:29;;;;;;;0.00;0.00;;;;;;;;;;5048207;28;20100;-59
2022/08/24 04:57:54;;;;;;;0.00;0.00;;;;;;;;;;5048222;28;20087;-59
2022/08/24 05:00:19;;;;;;;0.00;0.00;;;;;;;;;;5047681;28;20040;-60
2022/08/24 05:02:45;;;;;;;0.00;0.00;;;;;;;;;;5048344;28;20021;-59
2022/08/24 05:05:10;;;;;;;0.00;0.00;;;;;;;;;;5048444;28;20108;-58
2022/08/24 05:07:36;;;;;;;0.00;0.00;;;;;;;;;;5048297;28;20120;-59
2022/08/24 05:10:02;;;;;;;0.00;0.00;;;;;;;;;;5048738;28;20033;-60
2022/08/24 05:12:27;;;;;;;0.00;0.00;;;;;;;;;;5047883;28;20028;-59
2022/08/24 05:14:53;;;;;;;0.00;0.00;;;;;;;;;;5048225;28;20017;-58
2022/08/24 05:17:18;;;;;;;0.00;0.00;;;;;;;;;;5047391;28;20021;-59
2022/08/24 05:19:43;;;;;;;0.00;0.00;;;;;;;;;;5048103;28;20017;-59
2022/08/24 05:22:09;;;;;;;1.05;1.05;;;;;;;;;;5048208;28;20032;-59
2022/08/24 05:24:34;;;;;;;0.00;0.00;;;;;;;;;;5047744;28;20017;-60
2022/08/24 05:26:59;;;;;;;0.10;0.10;;;;;;;;;;5048106;28;20051;-59
2022/08/24 05:29:25;;;;;;;0.00;0.00;;;;;;;;;;5047876;28;20094;-59
2022/08/24 05:31:50;;;;;;;0.00;0.00;;;;;;;;;;5048373;28;20052;-59
2022/08/24 05:34:15;;;;;;;0.00;0.00;;;;;;;;;;5048326;28;20091;-59
2022/08/24 05:36:41;;;;;;;0.00;0.00;;;;;;;;;;5047889;28;20013;-59
2022/08/24 05:39:08;;;;;;;0.00;0.00;;;;;;;;;;5048195;28;20443;-59
2022/08/24 05:41:34;;;;;;;0.00;0.00;;;;;;;;;;5047812;28;20098;-59
2022/08/24 05:44:00;;;;;;;0.00;0.00;;;;;;;;;;5049074;28;20029;-60
2022/08/24 05:46:26;;;;;;;0.00;0.00;;;;;;;;;;5050038;28;20474;-59
2022/08/24 05:48:51;;;;;;;0.00;0.00;;;;;;;;;;5051880;28;20037;-58
2022/08/24 05:51:16;;;;;;;0.00;0.00;;;;;;;;;;5051627;28;20427;-60
2022/08/24 05:53:41;;;;;;;0.00;0.00;;;;;;;;;;5051129;28;20021;-59
2022/08/24 05:56:08;;;;;;;0.00;0.00;;;;;;;;;;5051287;28;20032;-59
2022/08/24 05:58:34;;;;;;;0.00;0.00;;;;;;;;;;5051288;28;21851;-59
2022/08/24 06:01:04;;;;;;;0.00;0.00;;;;;;;;;;5051297;28;20029;-60
2022/08/24 06:03:30;;;;;;;0.00;0.00;;;;;;;;;;5050885;28;20045;-60
2022/08/24 06:05:56;;;;;;;0.00;0.00;;;;;;;;;;5051081;28;20055;-61
2022/08/24 06:08:22;;;;;;;0.00;0.00;;;;;;;;;;5050637;28;20302;-60
2022/08/24 06:10:48;;;;;;;0.60;0.60;;;;;;;;;;5049450;28;20028;-59
2022/08/24 06:13:13;;;;;;;0.00;0.00;;;;;;;;;;5051199;28;20013;-60
2022/08/24 06:15:39;;;;;;;9.07;0.85;;;;;;;;;;5050128;28;20112;-59
2022/08/24 06:18:05;;;;;;;0.35;0.35;;;;;;;;;;5050836;28;20021;-59
2022/08/24 06:20:31;;;;;;;0.30;0.30;;;;;;;;;;5050384;28;20035;-59
2022/08/24 06:22:56;;;;;;;0.52;0.52;;;;;;;;;;5051198;28;20082;-59
2022/08/24 06:28:05;;;;;;;0.10;0.10;;;;;;;;;;5051149;28;20082;-60
2022/08/24 06:30:30;;;;;;;0.00;0.00;;;;;;;;;;5050455;28;20396;-59
2022/08/24 06:32:59;;;;;;;0.90;0.83;;;;;;;;;;5050527;28;20282;-60
2022/08/24 06:35:24;;;;;;;0.00;0.00;;;;;;;;;;5050419;28;20255;-60
2022/08/24 06:37:49;;;;;;;0.00;0.00;;;;;;;;;;5050858;28;20386;-60
2022/08/24 06:40:15;;;;;;;0.00;0.00;;;;;;;;;;5049177;28;20471;-60
2022/08/24 06:42:40;;;;;;;0.00;0.00;;;;;;;;;;5050138;28;20425;-60
2022/08/24 06:45:05;;;;;;;0.00;0.00;;;;;;;;;;5048665;28;20033;-60
2022/08/24 06:47:31;;;;;;;0.00;0.00;;;;;;;;;;5050140;28;20083;-61
2022/08/24 06:49:57;;;;;;;0.00;0.00;;;;;;;;;;5050384;28;20546;-59
2022/08/24 06:52:22;;;;;;;0.00;0.00;;;;;;;;;;5048767;28;20271;-60
2022/08/24 06:54:48;;;;;;;0.20;0.20;;;;;;;;;;5050140;28;20017;-60
2022/08/24 06:57:13;;;;;;;0.00;0.00;;;;;;;;;;5049252;28;20045;-60
2022/08/24 06:59:39;;;;;;;0.00;0.00;;;;;;;;;;5050330;28;20040;-60
2022/08/24 07:02:04;;;;;;;0.00;0.00;;;;;;;;;;5050510;28;20025;-60
2022/08/24 07:04:29;;;;;;;0.00;0.00;;;;;;;;;;5049624;28;20021;-60
2022/08/24 07:06:54;;;;;;;0.00;0.00;;;;;;;;;;5050406;28;20024;-59
2022/08/24 07:09:23;;;;;;;5.75;5.45;;;;;;;;;;5050049;28;20264;-59
2022/08/24 07:11:49;;;;;;;0.00;0.00;;;;;;;;;;5050103;28;20123;-59
2022/08/24 07:14:14;;;;;;;0.00;0.00;;;;;;;;;;5048499;28;20107;-60
2022/08/24 07:16:39;;;;;;;0.00;0.00;;;;;;;;;;5049659;28;20469;-59
2022/08/24 07:19:05;;;;;;;0.00;0.00;;;;;;;;;;5049935;28;20255;-60
2022/08/24 07:21:31;;;;;;;0.00;0.00;;;;;;;;;;5049435;28;20274;-60
2022/08/24 07:23:58;;;;;;;0.08;0.08;;;;;;;;;;5049394;28;20040;-59
2022/08/24 07:26:25;;;;;;;0.00;0.00;;;;;;;;;;5049167;28;20031;-60
2022/08/24 07:28:59;;;;;;;0.00;0.00;;;;;;;;;;5049914;28;20390;-59
2022/08/24 07:31:25;;;;;;;0.00;0.00;;;;;;;;;;5049097;28;20021;-59
2022/08/24 07:33:50;;;;;;;0.00;0.00;;;;;;;;;;5050011;28;20036;-60
2022/08/24 07:36:16;;;;;;;0.00;0.00;;;;;;;;;;5050917;28;20095;-59
2022/08/24 07:38:41;;;;;;;0.00;0.00;;;;;;;;;;5049326;28;20271;-59
2022/08/24 07:41:06;;;;;;;0.00;0.00;;;;;;;;;;5048184;28;20079;-60
2022/08/24 07:43:32;;;;;;;0.00;0.00;;;;;;;;;;5049033;28;20460;-60
2022/08/24 07:45:57;;;;;;;0.00;0.00;;;;;;;;;;5049287;28;20041;-60
2022/08/24 07:48:23;;;;;;;0.00;0.00;;;;;;;;;;5049198;28;20289;-61
2022/08/24 07:50:48;;;;;;;0.00;0.00;;;;;;;;;;5050875;28;20116;-59
2022/08/24 07:53:13;;;;;;;0.00;0.00;;;;;;;;;;5049530;28;20029;-60
2022/08/24 07:55:39;;;;;;;0.00;0.00;;;;;;;;;;5047975;28;20071;-60
2022/08/24 07:58:04;;;;;;;0.00;0.00;;;;;;;;;;5048933;28;20064;-61
2022/08/24 08:00:29;;;;;;;0.00;0.00;;;;;;;;;;5048938;28;20032;-60
2022/08/24 08:02:55;;;;;;;0.00;0.00;;;;;;;;;;5049142;28;20027;-59
2022/08/24 08:05:21;;;;;;;0.00;0.00;;;;;;;;;;5049169;28;20461;-60
2022/08/24 08:07:47;;;;;;;0.00;0.00;;;;;;;;;;5048808;28;20063;-60
2022/08/24 08:10:12;;;;;;;0.00;0.00;;;;;;;;;;5047655;28;20056;-61
2022/08/24 08:12:37;;;;;;;0.00;0.00;;;;;;;;;;5048422;28;20013;-60
2022/08/24 08:15:04;;;;;;;0.00;0.00;;;;;;;;;;5049297;28;20020;-61
2022/08/24 08:17:29;;;;;;;0.00;0.00;;;;;;;;;;5048676;28;20462;-61
2022/08/24 08:19:55;;;;;;;0.00;0.00;;;;;;;;;;5049105;28;20032;-60
2022/08/24 08:25:06;;;;;;;0.00;0.00;;;;;;;;;;5049095;28;20763;-60
2022/08/24 08:27:31;;;;;;;0.00;0.00;;;;;;;;;;5048339;28;20626;-60
2022/08/24 08:29:57;;;;;;;0.00;0.00;;;;;;;;;;5048554;28;20013;-60
2022/08/24 08:32:22;;;;;;;0.00;0.00;;;;;;;;;;5048452;28;20485;-61
2022/08/24 08:34:47;;;;;;;0.00;0.00;;;;;;;;;;5048090;28;20025;-59
2022/08/24 08:37:13;;;;;;;0.13;0.13;;;;;;;;;;5048863;28;20036;-60
2022/08/24 08:39:39;;;;;;;0.00;0.00;;;;;;;;;;5046549;28;20025;-60
2022/08/24 08:42:07;;;;;;;0.00;0.00;;;;;;;;;;5048084;28;20025;-60
2022/08/24 08:44:51;;;;;;;0.20;0.20;;;;;;;;;;5048101;28;20025;-60
2022/08/24 08:47:22;;;;;;;0.00;0.00;;;;;;;;;;5047082;28;20044;-60
2022/08/24 08:50:06;;;;;;;0.00;0.00;;;;;;;;;;5048080;28;20103;-60
2022/08/24 08:52:50;;;;;;;0.00;0.00;;;;;;;;;;5048392;28;20068;-59
2022/08/24 08:55:34;;;;;;;0.00;0.00;;;;;;;;;;5048359;28;20033;-59
2022/08/24 08:58:02;;;;;;;0.00;0.00;;;;;;;;;;5048045;28;20053;-60
2022/08/24 09:00:47;;;;;;;0.00;0.00;;;;;;;;;;5048246;28;20482;-59
2022/08/24 09:03:12;;;;;;;0.10;0.10;;;;;;;;;;5048527;28;20025;-60
2022/08/24 09:05:53;;;;;;;0.00;0.00;;;;;;;;;;5047979;28;20021;-61
2022/08/24 09:08:18;;;;;;;0.00;0.00;;;;;;;;;;5047114;28;20044;-60
2022/08/24 09:10:43;;;;;;;0.00;0.00;;;;;;;;;;5047890;28;20064;-60
2022/08/24 09:13:27;;;;;;;0.00;0.00;;;;;;;;;;5048396;28;20342;-60
2022/08/24 09:15:56;;;;;;;0.00;0.00;;;;;;;;;;5048292;28;20366;-59
2022/08/24 09:18:21;;;;;;;0.00;0.00;;;;;;;;;;5048247;28;20292;-60
2022/08/24 09:20:58;;;;;;;0.00;0.00;;;;;;;;;;5051898;28;20126;-60
2022/08/24 09:23:26;;;;;;;0.00;0.00;;;;;;;;;;5052214;28;20021;-60
2022/08/24 09:26:15;;;;;;;0.98;0.98;;;;;;;;;;5051828;28;20047;-60
2022/08/24 09:28:40;;;;;;;;;;;;;;;;;;5047476;28;20501;-60
2022/08/24 09:31:24;;;;;;;0.00;0.00;;;;;;;;;;5051843;28;19919;-60
2022/08/24 09:33:55;;;;;;;0.00;0.00;;;;;;;;;;5050748;28;20079;-60
2022/08/24 09:36:38;;;;;;;0.00;0.00;;;;;;;;;;5051082;28;20026;-60
2022/08/24 09:39:13;;;;;;;0.00;0.00;;;;;;;;;;5052062;28;20021;-60
2022/08/24 09:41:59;;;;;;;0.10;0.10;;;;;;;;;;5051490;28;20540;-61
2022/08/24 09:44:27;;;;;;;0.00;0.00;;;;;;;;;;5050128;28;20082;-60
2022/08/24 09:47:11;;;;;;;0.00;0.00;;;;;;;;;;5051799;28;20047;-60
2022/08/24 09:49:45;;;;;;;0.00;0.00;;;;;;;;;;5050713;28;20040;-61
2022/08/24 09:52:22;;;;;;;0.00;0.00;;;;;;;;;;5051289;28;20024;-59
2022/08/24 09:54:47;;;;;;;0.00;0.00;;;;;;;;;;5051045;28;20036;-60
2022/08/24 09:57:31;;;;;;;0.63;0.37;;;;;;;;;;5051183;28;20443;-60
2022/08/24 10:00:11;;;;;;;1.45;0.70;;;;;;;;;;5051439;28;20470;-59
2022/08/24 10:02:36;;;;;;;0.00;0.00;;;;;;;;;;5051027;28;20129;-60
2022/08/24 10:05:11;;;;;;;0.00;0.00;;;;;;;;;;5050252;28;20569;-60
2022/08/24 10:07:40;;;;;;;0.20;0.20;;;;;;;;;;5050440;28;20032;-60
2022/08/24 10:10:23;;;;;;;0.00;0.00;;;;;;;;;;5050876;28;20017;-59
2022/08/24 10:12:56;;;;;;;0.10;0.10;;;;;;;;;;5052043;28;20162;-60
2022/08/24 10:15:21;;;;;;;0.10;0.10;;;;;;;;;;5051295;28;20024;-60
2022/08/24 10:18:05;;;;;;;0.10;0.10;;;;;;;;;;5050523;28;20017;-59
2022/08/24 10:20:44;;;;;;;0.00;0.00;;;;;;;;;;5050700;28;20287;-59
2022/08/24 10:23:23;;;;;;;0.00;0.00;;;;;;;;;;5050946;28;20060;-60
2022/08/24 10:26:01;;;;;;;0.00;0.00;;;;;;;;;;5050450;28;20020;-60
2022/08/24 10:28:27;;;;;;;0.03;0.03;;;;;;;;;;5050770;28;20100;-59
2022/08/24 10:31:07;;;;;;;0.00;0.00;;;;;;;;;;5050167;28;20039;-59
2022/08/24 10:33:38;;;;;;;0.03;0.03;;;;;;;;;;5050441;28;20259;-60
2022/08/24 10:36:21;;;;;;;0.00;0.00;;;;;;;;;;5051608;28;20028;-59
2022/08/24 10:41:45;;;;;;;0.00;0.00;;;;;;;;;;5050044;28;20044;-60
2022/08/24 10:44:11;;;;;;;0.00;0.00;;;;;;;;;;5050671;28;20028;-60
2022/08/24 10:46:36;;;;;;;0.90;0.90;;;;;;;;;;5049970;28;20032;-60
2022/08/24 10:49:04;;;;;;;0.30;0.30;;;;;;;;;;5050840;28;20059;-60
2022/08/24 10:51:41;;;;;;;0.00;0.00;;;;;;;;;;5050174;28;20028;-60
2022/08/24 10:54:09;;;;;;;0.00;0.00;;;;;;;;;;5050548;28;20377;-60
2022/08/24 10:56:40;;;;;;;0.23;0.23;;;;;;;;;;5049397;28;20040;-60
2022/08/24 10:59:24;;;;;;;0.10;0.10;;;;;;;;;;5049210;28;20275;-59
2022/08/24 11:01:58;;;;;;;0.20;0.17;;;;;;;;;;5049731;28;20033;-60
2022/08/24 11:04:31;;;;;;;0.00;0.00;;;;;;;;;;5050604;28;20029;-60
2022/08/24 11:07:15;;;;;;;1.55;0.88;;;;;;;;;;5049089;28;20044;-60
2022/08/24 11:09:44;;;;;;;0.00;0.00;;;;;;;;;;5050046;28;20541;-59
2022/08/24 11:12:25;;;;;;;0.00;0.00;;;;;;;;;;5049754;28;20110;-59
2022/08/24 11:14:50;;;;;;;0.00;0.00;;;;;;;;;;5049988;28;20190;-59
2022/08/24 11:17:17;;;;;;;0.10;0.10;;;;;;;;;;5050217;28;20497;-60
2022/08/24 11:19:43;;;;;;;0.00;0.00;;;;;;;;;;5049699;28;20017;-60
2022/08/24 11:22:26;;;;;;;0.10;0.10;;;;;;;;;;5049406;28;20548;-60
2022/08/24 11:24:53;;;;;;;0.90;0.52;;;;;;;;;;5047833;28;20101;-60
2022/08/24 11:27:18;;;;;;;0.00;0.00;;;;;;;;;;5050053;28;20028;-59
2022/08/24 11:29:50;;;;;;;0.40;0.40;;;;;;;;;;5049646;28;20111;-60
2022/08/24 11:32:34;;;;;;;0.70;0.10;;;;;;;;;;5048643;28;20032;-60
2022/08/24 11:35:01;;;;;;;0.00;0.00;;;;;;;;;;5049910;28;20029;-60
2022/08/24 11:37:31;;;;;;;0.47;0.47;;;;;;;;;;5048079;28;20028;-59
2022/08/24 11:39:56;;;;;;;0.30;0.30;;;;;;;;;;5049350;28;20063;-60
2022/08/24 11:42:33;;;;;;;2.55;2.08;;;;;;;;;;5049009;28;20049;-60
2022/08/24 11:44:59;;;;;;;0.80;0.55;;;;;;;;;;5049675;28;20111;-61
2022/08/24 11:47:24;;;;;;;0.50;0.50;;;;;;;;;;5049085;28;20116;-60
2022/08/24 11:50:09;;;;;;;1.20;0.27;;;;;;;;;;5048785;28;20737;-59
2022/08/24 11:52:47;;;;;;;0.00;0.00;;;;;;;;;;5044658;28;20043;-61
2022/08/24 11:55:41;;;;;;;0.52;0.52;;;;;;;;;;5049668;28;20021;-60
2022/08/24 11:58:29;;;;;;;0.00;0.00;;;;;;;;;;5044045;28;20102;-60
2022/08/24 12:00:58;;;;;;;0.00;0.00;;;;;;;;;;5047960;28;20025;-59
2022/08/24 12:03:23;;;;;;;;;;;;;;;;;;5049687;28;20017;-60
2022/08/24 12:05:59;;;;;;;0.95;0.32;;;;;;;;;;5048386;28;19915;-60
2022/08/24 12:08:40;;;;;;;0.22;0.22;;;;;;;;;;5048943;28;20048;-60
2022/08/24 12:11:22;;;;;;;0.00;0.00;;;;;;;;;;5049047;28;20485;-60
2022/08/24 12:13:53;;;;;;;0.00;0.00;;;;;;;;;;5048457;28;20017;-60
2022/08/24 12:16:23;;;;;;;0.28;0.28;;;;;;;;;;5049026;28;20035;-60
2022/08/24 12:18:55;;;;;;;0.03;0.03;;;;;;;;;;5048459;28;20025;-60
2022/08/24 12:21:22;;;;;;;0.08;0.08;;;;;;;;;;5048620;28;20124;-60
2022/08/24 12:23:50;;;;;;;0.00;0.00;;;;;;;;;;5048335;28;20028;-60
2022/08/24 12:26:25;;;;;;;0.15;0.15;;;;;;;;;;5048779;28;20025;-60
2022/08/24 12:28:55;;;;;;;0.75;0.75;;;;;;;;;;5047300;28;20028;-60
2022/08/24 12:31:39;;;;;;;0.00;0.00;;;;;;;;;;5047767;28;20032;-59
2022/08/24 12:34:23;;;;;;;0.00;0.00;;;;;;;;;;5047720;28;20029;-59
2022/08/24 12:37:05;;;;;;;0.00;0.00;;;;;;;;;;5048289;28;20067;-59
2022/08/24 12:39:34;;;;;;;0.00;0.00;;;;;;;;;;5048623;28;20115;-61
2022/08/24 12:42:15;;;;;;;0.00;0.00;;;;;;;;;;5048969;28;20416;-60
2022/08/24 12:44:44;;;;;;;0.05;0.05;;;;;;;;;;5046461;28;20021;-61
2022/08/24 12:47:09;;;;;;;0.00;0.00;;;;;;;;;;5048417;28;20524;-60
2022/08/24 12:49:42;;;;;;;0.00;0.00;;;;;;;;;;5048335;28;20027;-61
2022/08/24 12:52:12;;;;;;;0.13;0.13;;;;;;;;;;5048235;28;20028;-60
2022/08/24 12:54:37;;;;;;;0.00;0.00;;;;;;;;;;5051331;28;20035;-60
2022/08/24 12:57:12;;;;;;;0.00;0.00;;;;;;;;;;5052472;28;20044;-60
2022/08/24 12:59:45;;;;;;;0.05;0.05;;;;;;;;;;5051150;28;20107;-60
2022/08/24 13:02:13;;;;;;;0.10;0.10;;;;;;;;;;5051501;28;20024;-60
2022/08/24 13:04:42;;;;;;;0.13;0.13;;;;;;;;;;5052058;28;20107;-61
2022/08/24 13:07:22;;;;;;;0.40;0.40;;;;;;;;;;5052276;28;20037;-60
2022/08/24 13:10:01;;;;;;;0.20;0.20;;;;;;;;;;5050478;28;20029;-60
2022/08/24 13:12:26;;;;;;;;;;;;;;;;;;5052740;28;20710;-60
2022/08/24 13:14:51;;;;;;;0.00;0.00;;;;;;;;;;5052124;28;19916;-60
2022/08/24 13:17:17;;;;;;;0.10;0.10;;;;;;;;;;5052522;28;20283;-60
2022/08/24 13:19:44;;;;;;;0.10;0.10;;;;;;;;;;5051700;28;20261;-60
2022/08/24 13:22:09;;;;;;;3.60;1.27;;;;;;;;;;5051988;28;20538;-60
2022/08/24 13:24:34;;;;;;;1.33;1.23;;;;;;;;;;5052383;28;20116;-60
2022/08/24 13:27:12;;;;;;;0.00;0.00;;;;;;;;;;5050785;28;20291;-60
2022/08/24 13:29:42;;;;;;;0.17;0.17;;;;;;;;;;5051824;28;20025;-59
2022/08/24 13:32:11;;;;;;;0.10;0.10;;;;;;;;;;5052074;28;20378;-60
2022/08/24 13:34:43;;;;;;;0.00;0.00;;;;;;;;;;5053555;28;20029;-60
2022/08/24 13:37:16;;;;;;;0.00;0.00;;;;;;;;;;5052117;28;20055;-60
2022/08/24 13:39:41;;;;;;;0.00;0.00;;;;;;;;;;5051489;28;20063;-60
2022/08/24 13:42:26;;;;;;;0.37;0.37;;;;;;;;;;5051695;28;20029;-60
2022/08/24 13:44:51;;;;;;;0.00;0.00;;;;;;;;;;5051396;28;20283;-60
2022/08/24 13:47:30;;;;;;;0.00;0.00;;;;;;;;;;5052130;28;20339;-60
2022/08/24 13:50:00;;;;;;;0.75;0.75;;;;;;;;;;5049829;28;20334;-60
2022/08/24 13:52:26;;;;;;;0.28;0.28;;;;;;;;;;5051397;28;20033;-60
2022/08/24 13:55:00;;;;;;;0.07;0.07;;;;;;;;;;5051287;28;20787;-61
2022/08/24 13:57:35;;;;;;;0.30;0.30;;;;;;;;;;5050172;28;20420;-60
2022/08/24 14:00:10;;;;;;;0.50;0.50;;;;;;;;;;5050295;28;20017;-60
2022/08/24 14:02:47;;;;;;;0.00;0.00;;;;;;;;;;5051203;28;20413;-60
2022/08/24 14:05:23;;;;;;;0.00;0.00;;;;;;;;;;5051056;28;20481;-60
2022/08/24 14:07:52;;;;;;;6.28;0.80;;;;;;;;;;5050728;28;20045;-60
2022/08/24 14:10:37;;;;;;;0.00;0.00;;;;;;;;;;5051428;28;20035;-60
2022/08/24 14:13:03;;;;;;;0.00;0.00;;;;;;;;;;5050828;28;20120;-60
2022/08/24 14:15:31;;;;;;;0.00;0.00;;;;;;;;;;5051000;28;20032;-60
2022/08/24 14:17:56;;;;;;;0.32;0.20;;;;;;;;;;5050500;28;20110;-60
2022/08/24 14:20:31;;;;;;;0.00;0.00;;;;;;;;;;5050894;28;20060;-60
2022/08/24 14:23:06;;;;;;;0.00;0.00;;;;;;;;;;5050535;28;20263;-60
2022/08/24 14:25:33;;;;;;;0.38;0.38;;;;;;;;;;5050026;28;20021;-60
2022/08/24 14:27:58;;;;;;;0.00;0.00;;;;;;;;;;5050236;28;20063;-59
2022/08/24 14:30:23;;;;;;;4.67;0.37;;;;;;;;;;5050803;28;20056;-59
2022/08/24 14:32:57;;;;;;;0.13;0.13;;;;;;;;;;5050264;28;20659;-59
2022/08/24 14:35:43;;;;;;;0.10;0.10;;;;;;;;;;5050618;28;20256;-60
2022/08/24 14:38:09;;;;;;;0.00;0.00;;;;;;;;;;5050238;28;20045;-61
2022/08/24 14:40:34;;;;;;;0.10;0.10;;;;;;;;;;5050680;28;20048;-61
2022/08/24 14:43:07;;;;;;;0.30;0.10;;;;;;;;;;5050282;28;20043;-60
2022/08/24 14:45:38;;;;;;;1.13;1.05;;;;;;;;;;5050608;28;20035;-61
2022/08/24 14:48:03;;;;;;;0.10;0.10;;;;;;;;;;5050394;28;20028;-60
2022/08/24 14:50:37;;;;;;;0.30;0.30;;;;;;;;;;5050339;28;20033;-60
2022/08/24 14:53:28;;;;;;;0.10;0.10;;;;;;;;;;5049028;28;20322;-60
2022/08/24 14:56:02;;;;;;;0.00;0.00;;;;;;;;;;5055578;28;20033;-60
2022/08/24 14:58:30;;;;;;;1.15;0.30;;;;;;;;;;5050192;28;20037;-61
2022/08/24 15:01:23;;;;;;;0.00;0.00;;;;;;;;;;5050218;28;20025;-60
2022/08/24 15:03:48;;;;;;;0.10;0.10;;;;;;;;;;5049920;28;20027;-61